createdAt,value
2023-04-15T00:07:19.671Z,89.7
2023-04-15T00:22:53.699Z,89.5
2023-04-15T00:38:27.650Z,89.1
2023-04-15T00:54:01.643Z,89.2
2023-04-15T01:09:35.653Z,89.5
2023-04-15T01:25:09.629Z,89.2
2023-04-15T01:40:43.618Z,88.9
2023-04-15T01:56:17.960Z,90.6
2023-04-15T02:11:51.916Z,91.8
2023-04-15T02:27:25.905Z,92
2023-04-15T02:42:59.874Z,92.3
2023-04-15T02:58:33.819Z,92.8
2023-04-15T03:14:07.758Z,92.8
2023-04-15T03:29:41.769Z,93.4
2023-04-15T03:45:15.710Z,93.5
2023-04-15T04:00:49.568Z,93.9
2023-04-15T04:16:23.887Z,94.9
2023-04-15T04:31:58.222Z,93.9
2023-04-15T04:47:32.197Z,94.4
2023-04-15T05:03:06.918Z,93.1
2023-04-15T05:18:41.331Z,94.4
2023-04-15T05:34:15.280Z,95.8
2023-04-15T05:49:49.275Z,96.2
2023-04-15T06:05:23.264Z,97
2023-04-15T06:20:57.279Z,96.5
2023-04-15T06:36:31.196Z,96.5
2023-04-15T06:52:05.110Z,96.3
2023-04-15T07:07:39.108Z,95.5
2023-04-15T07:23:13.076Z,94.9
2023-04-15T07:38:47.030Z,94
2023-04-15T07:54:20.974Z,94.9
2023-04-15T08:09:55.101Z,94.4
2023-04-15T08:25:28.870Z,93.9
2023-04-15T08:41:02.857Z,93.6
2023-04-15T08:56:37.073Z,93.6
2023-04-15T09:12:11.181Z,93.1
2023-04-15T09:27:45.203Z,92
2023-04-15T09:43:19.217Z,90.1
2023-04-15T09:58:53.202Z,89.3
2023-04-15T10:14:27.663Z,88.2
2023-04-15T10:30:01.632Z,88.9
2023-04-15T10:45:35.591Z,89.3
2023-04-15T11:01:09.595Z,89.9
2023-04-15T11:16:43.890Z,89.4
2023-04-15T11:32:18.356Z,91
2023-04-15T11:47:52.683Z,90
2023-04-15T12:03:27.671Z,92.9
2023-04-15T12:19:03.330Z,92.5
2023-04-15T12:34:37.355Z,91.8
2023-04-15T12:50:11.539Z,92
2023-04-15T13:05:45.593Z,95.1
2023-04-15T13:21:19.589Z,94
2023-04-15T13:36:53.564Z,92.4
2023-04-15T13:52:27.550Z,92.5
2023-04-15T14:08:01.539Z,93.1
2023-04-15T14:23:35.561Z,93.3
2023-04-15T14:39:10.384Z,92.7
2023-04-15T14:54:44.243Z,92.9
2023-04-15T15:10:50.083Z,94.4
2023-04-15T15:26:24.218Z,94.7
2023-04-15T15:41:58.199Z,93.2
2023-04-15T15:57:32.275Z,94.5
2023-04-15T16:13:06.399Z,94.1
2023-04-15T16:28:52.844Z,95.1
2023-04-15T16:44:26.827Z,95.7
2023-04-15T17:00:00.826Z,95.1
2023-04-15T17:15:34.984Z,96
2023-04-15T17:31:09.237Z,96.2
2023-04-15T17:46:43.466Z,96.6
2023-04-15T18:02:17.980Z,96
2023-04-15T18:17:52.401Z,95.6
2023-04-15T18:33:26.802Z,94.6
2023-04-15T18:49:00.972Z,94.7
2023-04-15T19:04:35.345Z,94.2
2023-04-15T19:20:09.698Z,93.5
2023-04-15T19:35:43.705Z,93.5
2023-04-15T19:51:17.723Z,93.1
2023-04-15T20:06:51.750Z,93.1
2023-04-15T20:22:25.577Z,93.1
2023-04-15T20:37:59.803Z,92.6
2023-04-15T20:53:33.916Z,93.2
2023-04-15T21:09:08.489Z,93.5
2023-04-15T21:24:42.537Z,93.5
2023-04-15T21:40:16.784Z,93.4
2023-04-15T21:55:50.790Z,93.4
2023-04-15T22:11:24.920Z,93.8
2023-04-15T22:26:58.934Z,93.6
2023-04-15T22:42:33.502Z,93.7
2023-04-15T22:58:07.593Z,93.7
2023-04-15T23:13:41.598Z,94
2023-04-15T23:29:15.616Z,95.2
2023-04-15T23:44:49.715Z,94.9
